createdAt,value
2023-02-11T00:02:19.996Z,32.78
2023-02-11T00:04:52.412Z,31.83
2023-02-11T00:07:24.428Z,31.13
2023-02-11T00:09:56.937Z,32.95
2023-02-11T00:12:46.404Z,32.42
2023-02-11T00:15:37.379Z,32.70
2023-02-11T00:18:09.422Z,31.77
2023-02-11T00:20:44.999Z,32.22
2023-02-11T00:23:16.823Z,31.83
2023-02-11T00:25:49.888Z,33.60
2023-02-11T00:28:21.786Z,31.33
2023-02-11T00:31:04.076Z,31.50
2023-02-11T00:33:36.021Z,31.20
2023-02-11T00:36:10.975Z,30.35
2023-02-11T00:38:43.028Z,29.88
2023-02-11T00:41:16.315Z,30.52
2023-02-11T00:43:48.385Z,29.75
2023-02-11T00:46:24.600Z,29.58
2023-02-11T00:48:58.139Z,29.98
2023-02-11T00:51:31.808Z,31.42
2023-02-11T00:54:05.765Z,31.27
2023-02-11T00:56:38.321Z,30.17
2023-02-11T00:59:09.522Z,30.25
2023-02-11T01:01:45.121Z,29.98
2023-02-11T01:04:16.562Z,29.55
2023-02-11T01:06:49.694Z,28.38
2023-02-11T01:09:21.759Z,30.85
2023-02-11T01:11:56.443Z,31.05
2023-02-11T01:14:28.096Z,30.63
2023-02-11T01:17:05.903Z,29.00
2023-02-11T01:19:37.259Z,30.42
2023-02-11T01:22:09.129Z,29.98
2023-02-11T01:24:41.326Z,30.35
2023-02-11T01:27:17.680Z,29.15
2023-02-11T01:29:51.671Z,29.33
2023-02-11T01:32:26.507Z,28.27
2023-02-11T01:34:58.528Z,29.23
2023-02-11T01:37:33.088Z,29.30
2023-02-11T01:40:05.655Z,29.38
2023-02-11T01:42:38.100Z,29.23
2023-02-11T01:45:39.971Z,31.20
2023-02-11T01:48:17.262Z,30.38
2023-02-11T01:50:52.526Z,29.50
2023-02-11T01:54:06.563Z,28.70
2023-02-11T01:56:52.612Z,28.80
2023-02-11T01:59:30.905Z,30.48
2023-02-11T02:02:09.955Z,29.75
2023-02-11T02:05:01.194Z,28.85
2023-02-11T02:07:39.352Z,28.15
2023-02-11T02:10:17.487Z,29.48
2023-02-11T02:12:49.303Z,29.67
2023-02-11T02:15:30.758Z,29.90
2023-02-11T02:18:14.487Z,29.08
2023-02-11T02:21:22.259Z,30.15
2023-02-11T02:24:33.909Z,32.15
2023-02-11T02:27:26.920Z,32.28
2023-02-11T02:30:19.817Z,30.02
2023-02-11T02:33:20.561Z,31.10
2023-02-11T02:36:05.782Z,31.40
2023-02-11T02:38:42.577Z,30.95
2023-02-11T02:41:17.013Z,31.90
2023-02-11T02:43:51.204Z,32.03
2023-02-11T02:46:25.214Z,31.77
2023-02-11T02:49:00.708Z,32.33
2023-02-11T02:52:02.618Z,31.02
2023-02-11T02:55:00.540Z,32.08
2023-02-11T02:57:46.150Z,34.10
2023-02-11T03:00:37.328Z,31.98
2023-02-11T03:03:30.378Z,31.77
2023-02-11T03:06:11.011Z,31.70
2023-02-11T03:09:04.120Z,33.13
2023-02-11T03:11:40.754Z,32.83
2023-02-11T03:14:20.235Z,34.03
2023-02-11T03:16:57.965Z,36.17
2023-02-11T03:19:34.023Z,34.58
2023-02-11T03:22:14.224Z,34.03
2023-02-11T03:24:45.876Z,34.38
2023-02-11T03:27:24.950Z,34.92
2023-02-11T03:30:02.681Z,34.38
2023-02-11T03:32:38.969Z,35.42
2023-02-11T03:35:17.609Z,35.10
2023-02-11T03:37:57.524Z,35.42
2023-02-11T03:40:32.343Z,37.63
2023-02-11T03:43:11.483Z,37.35
2023-02-11T03:45:45.284Z,33.72
2023-02-11T03:48:22.622Z,36.80
2023-02-11T03:50:58.604Z,36.00
2023-02-11T03:53:32.867Z,35.55
2023-02-11T03:56:08.567Z,34.92
2023-02-11T03:58:41.645Z,39.00
2023-02-11T04:01:13.080Z,36.70
2023-02-11T04:03:45.103Z,36.13
2023-02-11T04:06:16.962Z,35.85
2023-02-11T04:09:04.264Z,36.28
2023-02-11T04:11:41.778Z,36.08
2023-02-11T04:14:17.256Z,36.75
2023-02-11T04:16:49.474Z,34.00
2023-02-11T04:19:21.166Z,36.15
2023-02-11T04:21:52.663Z,36.15
2023-02-11T04:24:28.442Z,37.65
2023-02-11T04:27:03.938Z,37.90
2023-02-11T04:29:35.635Z,39.00
2023-02-11T04:32:07.193Z,38.38
2023-02-11T04:34:38.933Z,37.60
2023-02-11T04:37:10.500Z,37.90
2023-02-11T04:39:44.739Z,38.67
2023-02-11T04:42:16.270Z,38.97
2023-02-11T04:44:48.128Z,39.08
2023-02-11T04:47:19.625Z,37.85
2023-02-11T04:52:49.335Z,41.22
2023-02-11T04:55:26.157Z,41.30
2023-02-11T04:57:57.828Z,41.40
2023-02-11T05:00:29.213Z,40.67
2023-02-11T05:03:00.401Z,39.63
2023-02-11T05:05:32.441Z,40.30
2023-02-11T05:08:03.690Z,41.10
2023-02-11T05:10:39.183Z,42.35
2023-02-11T05:13:10.449Z,41.63
2023-02-11T05:15:42.258Z,41.35
2023-02-11T05:18:15.036Z,41.58
2023-02-11T05:20:47.734Z,41.35
2023-02-11T05:23:20.452Z,42.75
2023-02-11T05:25:54.908Z,44.25
2023-02-11T05:28:26.435Z,42.95
2023-02-11T05:30:59.627Z,43.05
2023-02-11T05:33:31.480Z,41.78
2023-02-11T05:36:03.700Z,44.67
2023-02-11T05:38:36.660Z,47.50
2023-02-11T05:41:10.879Z,44.78
2023-02-11T05:43:44.971Z,45.30
2023-02-11T05:46:17.058Z,43.38
2023-02-11T05:48:48.749Z,47.03
2023-02-11T05:51:23.218Z,44.70
2023-02-11T05:53:54.343Z,46.50
2023-02-11T05:56:30.945Z,48.35
2023-02-11T05:59:02.860Z,45.13
2023-02-11T06:01:35.211Z,44.80
2023-02-11T06:04:06.424Z,45.63
2023-02-11T06:06:38.180Z,47.05
2023-02-11T06:09:10.215Z,48.13
2023-02-11T06:11:44.589Z,48.13
2023-02-11T06:14:16.772Z,48.90
2023-02-11T06:16:48.864Z,46.50
2023-02-11T06:19:20.591Z,50.88
2023-02-11T06:21:52.679Z,52.28
2023-02-11T06:24:47.759Z,51.50
2023-02-11T06:27:19.621Z,50.55
2023-02-11T06:29:52.684Z,48.15
2023-02-11T06:32:42.836Z,51.63
2023-02-11T06:35:15.747Z,50.58
2023-02-11T06:37:50.110Z,49.78
2023-02-11T06:40:22.578Z,50.42
2023-02-11T06:42:57.789Z,50.00
2023-02-11T06:45:29.754Z,51.28
2023-02-11T06:48:02.189Z,53.97
2023-02-11T06:50:34.456Z,51.30
2023-02-11T06:53:07.435Z,51.17
2023-02-11T06:55:39.568Z,48.30
2023-02-11T06:58:14.728Z,52.83
2023-02-11T07:00:46.803Z,52.58
2023-02-11T07:03:19.312Z,52.03
2023-02-11T07:05:51.894Z,48.00
2023-02-11T07:08:24.989Z,48.25
2023-02-11T07:10:57.179Z,52.35
2023-02-11T07:13:32.238Z,53.55
2023-02-11T07:16:08.525Z,51.13
2023-02-11T07:18:41.110Z,50.30
2023-02-11T07:21:16.706Z,52.65
2023-02-11T07:23:49.592Z,52.95
2023-02-11T07:26:24.347Z,53.63
2023-02-11T07:28:59.918Z,50.30
2023-02-11T07:31:33.947Z,55.33
2023-02-11T07:34:06.710Z,54.13
2023-02-11T07:36:38.828Z,53.17
2023-02-11T07:39:11.170Z,50.42
2023-02-11T07:41:43.268Z,49.08
2023-02-11T07:44:18.966Z,48.85
2023-02-11T07:46:51.031Z,54.00
2023-02-11T07:49:23.858Z,50.30
2023-02-11T07:51:55.937Z,46.55
2023-02-11T07:54:28.409Z,45.65
2023-02-11T12:16:45.620Z,34.92
2023-02-11T12:19:32.396Z,32.63
2023-02-11T12:22:13.021Z,33.67
2023-02-11T12:24:59.923Z,35.13
2023-02-11T12:27:47.580Z,31.50
2023-02-11T12:30:47.596Z,34.45
2023-02-11T12:33:31.127Z,34.55
2023-02-11T12:36:11.938Z,32.03
2023-02-11T12:39:01.140Z,33.15
2023-02-11T12:42:07.647Z,32.28
2023-02-11T12:44:59.178Z,33.65
2023-02-11T12:47:41.341Z,32.00
2023-02-11T12:50:20.739Z,33.00
2023-02-11T12:53:11.601Z,29.17
2023-02-11T12:55:50.282Z,30.02
2023-02-11T12:58:35.586Z,29.83
2023-02-11T13:01:22.524Z,28.17
2023-02-11T13:04:02.949Z,30.27
2023-02-11T13:06:43.104Z,29.27
2023-02-11T13:09:21.179Z,30.33
2023-02-11T13:11:54.789Z,29.27
2023-02-11T13:14:32.739Z,31.25
2023-02-11T13:17:09.211Z,30.65
2023-02-11T13:19:53.058Z,32.38
2023-02-11T13:22:35.000Z,32.47
2023-02-11T13:25:22.279Z,30.67
2023-02-11T13:28:02.538Z,29.65
2023-02-11T13:30:37.216Z,27.17
2023-02-11T13:33:34.140Z,29.42
2023-02-11T13:36:37.176Z,30.38
2023-02-11T13:39:10.198Z,26.67
2023-02-11T13:41:46.415Z,26.38
2023-02-11T13:44:38.856Z,27.52
2023-02-11T13:47:25.634Z,27.45
2023-02-11T13:49:57.856Z,27.95
2023-02-11T13:52:45.654Z,26.35
2023-02-11T13:55:27.798Z,29.08
2023-02-11T13:58:40.477Z,27.10
2023-02-11T14:01:12.630Z,27.50
2023-02-11T14:04:34.888Z,26.80
2023-02-11T14:07:43.969Z,29.65
2023-02-11T14:10:45.489Z,28.45
2023-02-11T14:13:28.363Z,31.17
2023-02-11T14:16:11.016Z,29.65
2023-02-11T14:19:03.431Z,29.17
2023-02-11T14:21:41.214Z,31.70
2023-02-11T14:24:48.773Z,29.20
2023-02-11T14:27:28.612Z,31.15
2023-02-11T14:30:33.275Z,30.10
2023-02-11T14:33:43.256Z,29.15
2023-02-11T14:36:30.181Z,29.15
2023-02-11T14:39:12.199Z,29.75
2023-02-11T14:41:46.645Z,31.55
2023-02-11T14:44:23.020Z,30.88
2023-02-11T14:46:59.700Z,28.88
2023-02-11T14:49:36.956Z,28.30
2023-02-11T14:52:20.158Z,29.27
2023-02-11T14:54:54.713Z,27.23
2023-02-11T14:57:28.537Z,27.58
2023-02-11T15:00:07.216Z,27.92
2023-02-11T15:03:04.362Z,26.00
2023-02-11T15:05:37.833Z,26.38
2023-02-11T15:08:20.685Z,25.10
2023-02-11T15:10:58.044Z,25.10
2023-02-11T15:13:34.095Z,25.92
2023-02-11T15:16:18.665Z,24.77
2023-02-11T15:18:57.873Z,23.83
2023-02-11T15:21:34.414Z,25.88
2023-02-11T15:24:08.897Z,24.65
2023-02-11T15:26:40.633Z,25.70
2023-02-11T15:29:23.137Z,23.92
2023-02-11T15:32:12.432Z,24.00
2023-02-11T15:34:54.035Z,22.23
2023-02-11T15:37:30.067Z,23.98
2023-02-11T15:40:14.756Z,23.20
2023-02-11T15:43:02.834Z,22.70
2023-02-11T15:45:38.313Z,21.67
2023-02-11T15:48:16.317Z,22.83
2023-02-11T15:50:59.161Z,22.23
2023-02-11T15:53:40.792Z,23.05
2023-02-11T15:56:27.671Z,21.33
2023-02-11T15:59:03.005Z,20.80
2023-02-11T16:01:39.894Z,23.23
2023-02-11T16:04:20.286Z,22.88
2023-02-11T16:06:57.122Z,23.55
2023-02-11T16:09:36.139Z,20.45
2023-02-11T16:12:30.856Z,24.17
2023-02-11T16:15:25.971Z,25.52
2023-02-11T16:17:57.901Z,25.27
2023-02-11T16:20:29.955Z,23.88
2023-02-11T16:23:06.824Z,24.48
2023-02-11T16:25:39.612Z,24.13
2023-02-11T16:28:18.641Z,23.17
2023-02-11T16:31:00.324Z,25.00
2023-02-11T16:40:23.983Z,19.42
2023-02-11T16:43:13.999Z,21.05
2023-02-11T16:45:55.008Z,19.73
2023-02-11T16:48:49.741Z,19.95
2023-02-11T16:51:22.286Z,19.33
2023-02-11T16:54:04.434Z,21.30
2023-02-11T16:57:06.775Z,20.90
2023-02-11T16:59:42.545Z,21.05
2023-02-11T17:02:41.356Z,22.77
2023-02-11T17:05:23.532Z,24.33
2023-02-11T17:08:00.767Z,25.83
2023-02-11T17:10:33.737Z,24.08
2023-02-11T17:13:08.295Z,24.75
2023-02-11T17:15:39.933Z,23.55
2023-02-11T17:18:15.841Z,22.83
2023-02-11T17:20:47.723Z,22.15
2023-02-11T17:23:19.723Z,24.45
2023-02-11T17:29:02.158Z,21.50
2023-02-11T17:31:35.005Z,19.38
2023-02-11T17:34:07.553Z,17.88
2023-02-11T17:36:41.852Z,20.42
2023-02-11T17:39:15.250Z,18.35
2023-02-11T17:41:48.255Z,19.17
2023-02-11T17:44:23.158Z,18.60
2023-02-11T17:46:55.891Z,17.17
2023-02-11T17:49:28.529Z,17.65
2023-02-11T17:52:01.157Z,17.17
2023-02-11T17:54:33.659Z,18.38
2023-02-11T17:57:06.474Z,19.88
2023-02-11T17:59:41.693Z,18.75
2023-02-11T18:02:15.401Z,17.90
2023-02-11T18:04:47.894Z,15.73
2023-02-11T18:07:20.596Z,16.08
2023-02-11T18:09:53.201Z,14.75
2023-02-11T18:12:28.532Z,16.10
2023-02-11T18:15:06.873Z,16.70
2023-02-11T18:17:39.953Z,16.73
2023-02-11T18:20:13.730Z,16.17
2023-02-11T18:22:46.392Z,17.15
2023-02-11T18:25:19.254Z,16.17
2023-02-11T18:27:51.921Z,17.27
2023-02-11T18:30:27.118Z,16.05
2023-02-11T18:32:59.824Z,17.20
2023-02-11T18:35:32.097Z,16.08
2023-02-11T18:38:08.564Z,17.17
2023-02-11T18:40:43.218Z,18.02
2023-02-11T18:43:15.457Z,16.65
2023-02-11T18:45:52.229Z,16.00
2023-02-11T18:48:24.738Z,15.90
2023-02-11T18:50:58.158Z,16.35
2023-02-11T18:53:30.541Z,15.27
2023-02-11T18:56:02.399Z,14.77
2023-02-11T18:58:34.558Z,14.45
2023-02-11T19:01:15.480Z,15.35
2023-02-11T19:03:48.561Z,15.55
2023-02-11T19:06:22.603Z,15.77
2023-02-11T19:08:58.990Z,13.88
2023-02-11T19:11:45.199Z,14.88
2023-02-11T19:14:21.142Z,14.38
2023-02-11T19:16:57.357Z,14.30
2023-02-11T19:19:31.615Z,14.73
2023-02-11T19:22:09.118Z,14.15
2023-02-11T19:24:42.386Z,14.15
2023-02-11T19:27:20.236Z,13.63
2023-02-11T19:30:11.017Z,14.23
2023-02-11T19:32:45.720Z,15.02
2023-02-11T19:35:17.937Z,15.18
2023-02-11T19:37:49.726Z,15.63
2023-02-11T19:40:22.556Z,16.20
2023-02-11T19:42:54.504Z,16.10
2023-02-11T19:45:27.167Z,15.57
2023-02-11T19:48:02.129Z,15.52
2023-02-11T19:50:34.407Z,14.88
2023-02-11T19:53:06.178Z,15.60
2023-02-11T19:55:38.717Z,16.65
2023-02-11T19:58:10.495Z,16.65
2023-02-11T20:00:43.197Z,16.30
2023-02-11T20:03:17.941Z,16.58
2023-02-11T20:05:50.845Z,15.38
2023-02-11T20:08:23.218Z,16.75
2023-02-11T20:10:55.402Z,16.17
2023-02-11T20:13:28.455Z,16.52
2023-02-11T20:16:00.815Z,16.88
2023-02-11T20:18:35.423Z,16.20
2023-02-11T20:21:10.861Z,16.55
2023-02-11T20:23:45.151Z,16.33
2023-02-11T20:26:19.893Z,16.75
2023-02-11T20:28:53.812Z,16.73
2023-02-11T20:31:27.177Z,15.63
2023-02-11T20:34:02.282Z,15.07
2023-02-11T20:36:38.572Z,16.38
2023-02-11T20:39:11.364Z,15.73
2023-02-11T20:41:46.370Z,15.40
2023-02-11T20:44:19.135Z,15.45
2023-02-11T20:46:51.807Z,13.45
2023-02-11T20:49:28.725Z,14.13
2023-02-11T20:52:01.307Z,13.70
2023-02-11T20:55:07.745Z,13.10
2023-02-11T20:57:39.879Z,13.18
2023-02-11T21:00:14.636Z,13.23
2023-02-11T21:02:54.918Z,12.48
2023-02-11T21:05:29.899Z,12.93
2023-02-11T21:08:02.864Z,12.75
2023-02-11T21:10:35.245Z,12.40
2023-02-11T21:13:07.845Z,11.93
2023-02-11T21:15:40.182Z,12.45
2023-02-11T21:18:13.754Z,11.73
2023-02-11T21:20:52.869Z,11.20
2023-02-11T21:23:26.350Z,11.60
2023-02-11T21:25:58.830Z,10.63
2023-02-11T21:28:31.570Z,11.15
2023-02-11T21:31:03.866Z,11.02
2023-02-11T21:33:36.793Z,10.25
2023-02-11T21:36:11.761Z,9.57
2023-02-11T21:38:43.815Z,10.57
2023-02-11T21:41:16.015Z,10.43
2023-02-11T21:43:49.194Z,11.52
2023-02-11T21:46:22.828Z,10.98
2023-02-11T21:48:55.088Z,11.05
2023-02-11T21:51:30.714Z,11.35
2023-02-11T21:54:03.995Z,10.45
2023-02-11T21:56:36.701Z,11.52
2023-02-11T21:59:09.006Z,11.45
2023-02-11T22:01:42.059Z,10.85
2023-02-11T22:04:14.534Z,10.93
2023-02-11T22:06:49.596Z,11.00
2023-02-11T22:09:21.776Z,11.05
2023-02-11T22:11:53.968Z,11.10
2023-02-11T22:14:26.055Z,11.90
2023-02-11T22:16:58.947Z,12.65
2023-02-11T22:19:32.921Z,12.27
2023-02-11T22:22:08.232Z,13.05
2023-02-11T22:24:40.948Z,13.00
2023-02-11T22:27:14.441Z,13.38
2023-02-11T22:29:46.100Z,13.30
2023-02-11T22:32:20.303Z,12.45
2023-02-11T22:34:53.405Z,12.27
2023-02-11T22:37:27.829Z,13.43
2023-02-11T22:39:59.820Z,12.77
2023-02-11T22:42:31.848Z,13.90
2023-02-11T22:45:03.773Z,12.73
2023-02-11T22:47:36.571Z,13.45
2023-02-11T22:50:09.815Z,11.60
2023-02-11T22:52:45.487Z,13.30
2023-02-11T22:55:17.805Z,13.70
2023-02-11T22:57:49.531Z,13.40
2023-02-11T23:00:24.820Z,12.15
2023-02-11T23:02:56.277Z,12.88
2023-02-11T23:05:29.356Z,13.45
2023-02-11T23:08:05.417Z,11.48
2023-02-11T23:10:45.928Z,12.27
2023-02-11T23:13:20.146Z,12.48
2023-02-11T23:15:51.890Z,12.32
2023-02-11T23:18:23.952Z,11.85
2023-02-11T23:20:56.139Z,11.13
2023-02-11T23:23:31.084Z,11.38
2023-02-11T23:26:06.486Z,12.65
2023-02-11T23:28:38.636Z,11.60
2023-02-11T23:31:19.678Z,11.70
2023-02-11T23:33:51.901Z,12.43
2023-02-11T23:36:24.760Z,12.60
2023-02-11T23:38:58.879Z,11.70
2023-02-11T23:41:32.118Z,11.68
2023-02-11T23:44:03.892Z,11.18
2023-02-11T23:46:36.250Z,12.23
2023-02-11T23:49:07.596Z,11.73
2023-02-11T23:51:39.275Z,10.68
2023-02-11T23:54:15.209Z,11.57
2023-02-11T23:56:47.300Z,10.57
2023-02-11T23:59:22.551Z,11.35
